Time;durP1;ratioP1;P1;durP2;ratioP2;P2;SDS_P1;SDS_P2;PMS_P1;PMS_P2;Temp;Humidity;BMP_temperature;BMP_pressure;BME280_temperature;BME280_humidity;BME280_pressure;Samples;Min_cycle;Max_cycle;Signal;HPM_P1;HPM_P2
2023/07/25 00:00:25;;;;;;;10.63;6.43;;;;;;;19.98;78.30;92009.03;2047805;70;20168;-80
2023/07/25 00:02:51;;;;;;;11.75;6.78;;;;;;;19.96;76.99;92003.28;2047995;70;20193;-81
2023/07/25 00:05:17;;;;;;;10.95;6.45;;;;;;;19.59;79.11;91992.66;2047851;70;20182;-80
2023/07/25 00:07:42;;;;;;;11.25;7.10;;;;;;;19.47;81.67;92019.63;2047614;70;20158;-80
2023/07/25 00:10:10;;;;;;;15.02;7.43;;;;;;;19.48;82.11;91995.38;2044245;70;20242;-80
2023/07/25 00:12:37;;;;;;;12.10;6.72;;;;;;;19.68;80.18;91994.28;2047677;70;20123;-83
2023/07/25 00:15:05;;;;;;;9.45;6.75;;;;;;;19.79;80.43;91987.28;2047607;70;20287;-81
2023/07/25 00:17:31;;;;;;;9.88;6.40;;;;;;;19.92;78.88;91991.06;2047661;70;20146;-81
2023/07/25 00:19:57;;;;;;;13.07;6.78;;;;;;;19.82;80.11;91993.78;2047765;70;20138;-81
2023/07/25 00:22:22;;;;;;;12.93;5.85;;;;;;;19.79;80.48;91998.72;2047450;70;20135;-81
2023/07/25 00:24:48;;;;;;;8.25;6.03;;;;;;;19.86;80.08;91988.13;2046770;70;20174;-81
2023/07/25 00:27:15;;;;;;;12.73;6.07;;;;;;;19.92;79.81;91985.34;2044318;70;20217;-80
2023/07/25 00:29:41;;;;;;;9.98;6.05;;;;;;;19.94;78.10;91999.69;2041043;70;20154;-80
2023/07/25 00:32:08;;;;;;;8.90;6.03;;;;;;;20.00;77.95;92008.31;2041131;70;20150;-80
2023/07/25 00:34:34;;;;;;;10.63;6.13;;;;;;;19.86;80.38;92008.84;2044246;70;20138;-80
2023/07/25 00:37:00;;;;;;;10.77;6.18;;;;;;;19.77;80.20;92007.28;2044290;70;20163;-80
2023/07/25 00:39:27;;;;;;;13.95;6.65;;;;;;;19.37;82.92;92010.84;2044209;70;20536;-80
2023/07/25 00:41:52;;;;;;;12.57;7.47;;;;;;;18.76;87.05;92009.75;2038345;70;20175;-80
2023/07/25 00:44:18;;;;;;;11.73;6.80;;;;;;;19.09;85.68;91993.97;2041078;70;20182;-79
2023/07/25 00:46:44;;;;;;;10.13;6.25;;;;;;;19.45;82.17;91976.03;2044719;70;20194;-80
2023/07/25 00:49:10;;;;;;;9.90;6.90;;;;;;;19.50;82.40;91968.97;2044978;70;20628;-80
2023/07/25 00:51:37;;;;;;;8.57;6.10;;;;;;;19.51;81.69;91988.25;2041775;70;20147;-80
2023/07/25 00:54:03;;;;;;;12.05;6.20;;;;;;;19.39;81.39;91982.38;2044779;70;20692;-81
2023/07/25 00:56:29;;;;;;;8.80;6.13;;;;;;;19.38;83.29;91969.53;2044850;70;20171;-82
2023/07/25 00:58:54;;;;;;;10.75;6.70;;;;;;;19.44;83.44;91966.03;2044812;70;20307;-80
2023/07/25 01:01:21;;;;;;;12.35;5.93;;;;;;;19.45;83.11;91984.59;2044882;70;20549;-80
2023/07/25 01:03:49;;;;;;;8.35;5.65;;;;;;;19.49;82.27;92016.06;2044784;70;20210;-80
2023/07/25 01:06:17;;;;;;;9.30;5.13;;;;;;;19.39;83.22;92016.63;2044944;70;20163;-80
2023/07/25 01:08:53;;;;;;;7.00;4.70;;;;;;;19.53;81.90;91981.88;2044853;70;20147;-80
2023/07/25 01:11:20;;;;;;;10.05;5.05;;;;;;;19.40;81.77;92012.34;2043987;70;20143;-80
2023/07/25 01:13:47;;;;;;;13.15;5.80;;;;;;;19.24;83.58;92017.75;2044645;70;20261;-81
2023/07/25 01:16:22;;;;;;;10.38;6.15;;;;;;;19.28;82.93;92007.13;2044057;70;20146;-82
2023/07/25 01:18:50;;;;;;;10.52;6.70;;;;;;;19.45;83.14;92011.00;2041303;70;20155;-81
2023/07/25 01:21:20;;;;;;;10.25;5.97;;;;;;;19.38;83.09;92008.72;2044557;70;20145;-81
2023/07/25 01:23:46;;;;;;;11.88;6.18;;;;;;;19.44;82.91;92001.00;2041285;70;20226;-81
2023/07/25 01:26:13;;;;;;;10.43;5.00;;;;;;;19.42;83.01;91983.84;2041300;70;20473;-80
2023/07/25 01:28:39;;;;;;;13.43;5.10;;;;;;;19.45;81.27;91993.88;2041588;70;20263;-81
2023/07/25 01:31:04;;;;;;;8.40;4.60;;;;;;;19.26;83.27;92009.25;2044798;70;20159;-81
2023/07/25 01:33:30;;;;;;;10.85;4.30;;;;;;;19.07;83.18;91993.94;2044568;70;20177;-81
2023/07/25 01:35:56;;;;;;;7.18;2.72;;;;;;;19.32;78.51;91992.22;2041562;70;20242;-80
2023/07/25 01:38:23;;;;;;;8.35;2.83;;;;;;;19.32;79.56;91997.22;2044122;70;20158;-81
2023/07/25 01:40:51;;;;;;;6.60;2.95;;;;;;;19.21;79.82;91991.34;2044599;70;20143;-81
2023/07/25 01:43:16;;;;;;;4.70;2.50;;;;;;;19.09;79.55;91985.41;2044701;70;20161;-81
2023/07/25 01:45:45;;;;;;;4.97;2.45;;;;;;;19.06;79.20;91992.50;2038733;70;20159;-81
2023/07/25 01:48:11;;;;;;;4.25;2.42;;;;;;;18.91;79.21;92008.59;2041428;70;20532;-81
2023/07/25 01:50:37;;;;;;;4.78;2.22;;;;;;;19.02;77.46;92015.97;2041354;70;20171;-81
2023/07/25 01:53:02;;;;;;;8.52;2.38;;;;;;;18.87;78.03;92022.06;2041116;70;20234;-81
2023/07/25 01:55:28;;;;;;;3.33;2.22;;;;;;;18.82;78.52;92023.41;2044361;70;20562;-81
2023/07/25 01:57:55;;;;;;;3.60;2.05;;;;;;;18.86;77.18;92024.19;2040805;70;20751;-82
2023/07/25 02:04:16;;;;;;;;;;;;;;;18.87;76.22;92028.50;2041327;70;20178;-82
2023/07/25 02:06:42;;;;;;;3.30;2.10;;;;;;;18.75;76.37;92031.13;2041039;70;20056;-82
2023/07/25 02:09:07;;;;;;;5.10;2.10;;;;;;;18.77;74.89;91994.81;2041435;70;20169;-82
2023/07/25 02:11:33;;;;;;;10.38;2.40;;;;;;;18.26;76.33;91967.41;2041632;70;20244;-82
2023/07/25 02:13:59;;;;;;;7.68;2.25;;;;;;;18.10;78.15;91941.41;2038326;70;20241;-83
2023/07/25 02:16:28;;;;;;;5.30;2.33;;;;;;;18.36;77.31;91935.53;2038286;70;20174;-82
2023/07/25 02:18:59;;;;;;;5.07;2.15;;;;;;;18.46;76.91;91904.38;2040947;70;20158;-82
2023/07/25 02:21:26;;;;;;;5.50;2.30;;;;;;;18.35;76.70;91897.78;2038337;70;20614;-83
2023/07/25 02:23:52;;;;;;;4.25;2.00;;;;;;;18.16;77.21;91896.69;2041096;70;20147;-82
2023/07/25 02:26:19;;;;;;;6.90;2.33;;;;;;;18.29;76.74;91909.06;2041065;70;20605;-83
2023/07/25 02:28:46;;;;;;;6.00;2.15;;;;;;;18.20;75.96;91916.72;2041063;70;20182;-83
2023/07/25 02:31:12;;;;;;;5.78;1.90;;;;;;;17.72;77.34;91902.16;2041022;70;20593;-82
2023/07/25 02:33:39;;;;;;;8.07;2.05;;;;;;;17.80;77.62;91902.38;2040916;70;20514;-82
2023/07/25 02:36:09;;;;;;;3.83;2.05;;;;;;;18.00;75.53;91896.38;2041054;70;20590;-81
2023/07/25 02:38:36;;;;;;;4.82;2.10;;;;;;;17.81;76.84;91900.94;2040977;70;20137;-82
2023/07/25 02:41:04;;;;;;;5.43;2.20;;;;;;;17.87;77.33;91906.06;2041505;70;20142;-82
2023/07/25 02:43:31;;;;;;;7.95;2.00;;;;;;;17.97;77.26;91909.13;2041574;70;20131;-82
2023/07/25 02:45:56;;;;;;;5.28;2.40;;;;;;;17.93;78.00;91909.03;2041479;70;20135;-82
2023/07/25 02:48:22;;;;;;;2.47;1.90;;;;;;;17.92;77.57;91911.16;2040768;70;20151;-82
2023/07/25 02:50:48;;;;;;;4.35;2.05;;;;;;;17.95;77.30;91921.19;2040826;70;20229;-82
2023/07/25 02:53:13;;;;;;;2.33;1.70;;;;;;;18.04;76.90;91919.22;2041596;70;20135;-83
2023/07/25 02:55:40;;;;;;;5.60;1.98;;;;;;;17.99;78.13;91915.56;2040980;70;20137;-82
2023/07/25 02:58:08;;;;;;;4.63;2.17;;;;;;;17.86;78.26;91922.41;2040866;70;20156;-83
2023/07/25 03:00:35;;;;;;;5.20;1.90;;;;;;;17.72;79.49;91922.78;2044094;70;20163;-82
2023/07/25 03:03:00;;;;;;;3.85;2.13;;;;;;;17.41;81.15;91923.50;2041485;70;20195;-82
2023/07/25 03:05:27;;;;;;;6.30;1.92;;;;;;;17.77;78.82;91920.78;2041476;70;20147;-82
2023/07/25 03:07:53;;;;;;;4.10;2.05;;;;;;;17.69;79.65;91915.63;2041626;70;20146;-82
2023/07/25 03:10:18;;;;;;;5.28;2.10;;;;;;;17.83;78.71;91914.53;2045358;70;20242;-81
2023/07/25 03:12:44;;;;;;;6.60;1.80;;;;;;;17.86;78.31;91930.22;2047033;70;20238;-82
2023/07/25 03:15:10;;;;;;;5.57;2.00;;;;;;;17.83;78.57;91945.84;2041947;70;20514;-82
2023/07/25 03:17:36;;;;;;;4.80;2.13;;;;;;;17.85;78.68;91934.50;2042184;70;20175;-82
2023/07/25 03:20:02;;;;;;;4.00;2.30;;;;;;;17.74;78.86;91933.56;2041479;70;20613;-82
2023/07/25 03:22:28;;;;;;;4.35;1.55;;;;;;;17.72;79.30;91931.34;2044782;70;20155;-82
2023/07/25 03:24:55;;;;;;;4.35;1.67;;;;;;;17.70;79.21;91922.75;2044792;70;20151;-83
2023/07/25 03:27:21;;;;;;;3.90;2.20;;;;;;;17.83;78.43;91917.38;2038670;70;20209;-83
2023/07/25 03:29:46;;;;;;;5.00;2.35;;;;;;;17.78;78.25;91937.22;2041474;70;20175;-82
2023/07/25 03:32:12;;;;;;;4.53;2.08;;;;;;;17.87;77.77;91932.41;2041427;70;20549;-83
2023/07/25 03:34:42;;;;;;;3.40;2.05;;;;;;;17.88;77.98;91936.00;2041323;70;20238;-83
2023/07/25 03:37:07;;;;;;;3.38;1.73;;;;;;;17.81;78.39;91943.66;2038736;70;20142;-83
2023/07/25 03:39:34;;;;;;;4.35;1.98;;;;;;;17.80;78.83;91950.03;2041363;70;20181;-83
2023/07/25 03:42:00;;;;;;;4.80;2.10;;;;;;;17.68;79.48;91954.00;2041477;70;20249;-83
2023/07/25 03:44:28;;;;;;;6.75;1.90;;;;;;;17.80;78.90;91958.56;2044793;70;20192;-82
2023/07/25 03:46:53;;;;;;;7.55;2.00;;;;;;;17.79;78.31;91974.94;2044783;70;20190;-83
2023/07/25 03:49:21;;;;;;;10.15;2.00;;;;;;;17.70;79.26;91978.97;2041261;70;20143;-83
2023/07/25 03:51:49;;;;;;;4.82;2.00;;;;;;;17.81;78.51;91988.47;2041531;70;20143;-83
2023/07/25 03:54:17;;;;;;;4.43;2.20;;;;;;;17.84;77.61;92002.09;2041757;70;20206;-83
2023/07/25 03:56:44;;;;;;;4.95;2.10;;;;;;;17.84;78.64;92004.22;2044850;70;20146;-83
2023/07/25 03:59:10;;;;;;;6.38;2.45;;;;;;;17.80;79.29;92013.38;2040755;70;20140;-83
2023/07/25 04:01:36;;;;;;;4.20;2.03;;;;;;;17.70;79.79;92013.84;2040882;70;20139;-83
2023/07/25 04:07:49;;;;;;;3.63;2.03;;;;;;;17.67;80.06;92008.78;2041307;70;20529;-82
2023/07/25 04:17:50;;;;;;;6.03;2.20;;;;;;;17.75;78.98;92011.84;2042262;70;20605;-82
2023/07/25 04:20:17;;;;;;;5.82;2.30;;;;;;;17.73;79.56;92008.91;2041027;70;20158;-83
2023/07/25 04:22:44;;;;;;;4.18;2.03;;;;;;;17.67;79.14;91997.38;2041357;70;20143;-83
2023/07/25 04:25:11;;;;;;;3.65;1.95;;;;;;;17.76;78.30;92011.16;2041194;70;20597;-83
2023/07/25 04:27:36;;;;;;;6.72;1.80;;;;;;;17.70;77.75;92015.97;2038579;70;20148;-83
2023/07/25 04:30:06;;;;;;;5.03;2.00;;;;;;;17.62;79.58;92004.38;2041243;70;20147;-83
2023/07/25 04:32:32;;;;;;;6.45;2.08;;;;;;;17.73;78.31;92009.69;2041333;70;20151;-83
2023/07/25 04:34:58;;;;;;;8.77;2.10;;;;;;;17.63;78.92;92002.97;2041276;70;20186;-83
2023/07/25 04:37:24;;;;;;;5.70;2.10;;;;;;;17.61;79.57;91977.34;2041780;70;20163;-82
2023/07/25 04:39:50;;;;;;;5.72;2.13;;;;;;;17.69;79.13;91954.75;2041258;70;20147;-82
2023/07/25 04:42:16;;;;;;;5.20;2.00;;;;;;;17.53;78.88;91935.91;2041953;70;20159;-82
2023/07/25 04:44:41;;;;;;;5.97;2.05;;;;;;;17.40;79.98;91941.97;2041791;70;20143;-82
2023/07/25 04:47:07;;;;;;;5.32;1.90;;;;;;;17.40;79.35;91922.06;2041182;70;20219;-82
2023/07/25 04:49:32;;;;;;;6.20;1.90;;;;;;;17.39;79.37;91852.34;2041801;70;20525;-82
2023/07/25 04:51:58;;;;;;;4.38;1.65;;;;;;;17.38;78.22;91799.72;2041209;70;20147;-82
2023/07/25 04:54:23;;;;;;;3.83;1.70;;;;;;;17.25;78.86;91739.72;2041294;70;20153;-83
2023/07/25 04:56:49;;;;;;;3.17;1.75;;;;;;;17.34;79.46;91745.56;2041771;70;20246;-83
2023/07/25 04:59:17;;;;;;;3.67;1.58;;;;;;;17.24;78.35;91746.81;2042590;70;20155;-83
2023/07/25 05:01:43;;;;;;;3.22;1.60;;;;;;;17.23;77.86;91738.97;2045016;70;20626;-82
2023/07/25 05:04:09;;;;;;;5.35;1.75;;;;;;;17.15;75.47;91721.72;2041786;70;20510;-82
2023/07/25 05:06:35;;;;;;;4.80;1.58;;;;;;;17.17;76.28;91742.38;2041826;70;20652;-83
2023/07/25 05:09:04;;;;;;;4.28;1.63;;;;;;;17.05;77.09;91772.69;2044881;70;20657;-82
2023/07/25 05:11:31;;;;;;;4.75;1.38;;;;;;;17.36;76.67;91813.88;2041762;70;20627;-82
2023/07/25 05:14:00;;;;;;;6.45;1.23;;;;;;;17.33;77.65;91824.50;2041840;70;20159;-82
2023/07/25 05:16:25;;;;;;;6.97;1.88;;;;;;;17.42;77.52;91820.44;2044639;70;20648;-82
2023/07/25 05:18:51;;;;;;;5.93;1.50;;;;;;;17.53;77.26;91829.91;2038956;70;20161;-82
2023/07/25 05:21:16;;;;;;;4.07;1.40;;;;;;;17.63;76.79;91829.38;2045128;70;20151;-82
2023/07/25 05:23:43;;;;;;;5.03;1.70;;;;;;;17.56;77.33;91827.84;2041756;70;20539;-82
2023/07/25 05:26:09;;;;;;;2.28;1.40;;;;;;;17.59;77.77;91832.88;2044610;70;20139;-80
2023/07/25 05:28:36;;;;;;;4.78;1.70;;;;;;;17.59;77.56;91835.00;2041801;70;20593;-81
2023/07/25 05:31:03;;;;;;;7.10;1.73;;;;;;;17.37;78.99;91826.72;2041852;70;20628;-82
2023/07/25 05:33:30;;;;;;;2.83;1.35;;;;;;;17.21;80.13;91824.22;2044811;70;20150;-83
2023/07/25 05:36:00;;;;;;;2.40;1.23;;;;;;;17.47;78.39;91841.16;2045164;70;20613;-82
2023/07/25 05:38:31;;;;;;;4.63;1.40;;;;;;;17.53;79.06;91832.75;2041803;70;20258;-82
2023/07/25 05:41:01;;;;;;;5.18;1.42;;;;;;;17.71;78.02;91827.44;2045000;70;20147;-83
2023/07/25 05:43:27;;;;;;;4.13;1.40;;;;;;;17.62;78.94;91822.25;2045033;70;20166;-82
2023/07/25 05:45:53;;;;;;;4.22;1.52;;;;;;;17.74;79.14;91817.56;2045031;70;20213;-83
2023/07/25 05:48:18;;;;;;;6.10;1.88;;;;;;;17.92;77.98;91820.06;2041597;70;20546;-83
2023/07/25 05:50:49;;;;;;;4.88;1.80;;;;;;;18.04;77.36;91825.25;2045126;70;20605;-82
2023/07/25 05:53:15;;;;;;;4.57;2.05;;;;;;;17.95;77.86;91826.50;2044992;70;20170;-83
2023/07/25 05:55:44;;;;;;;4.15;2.17;;;;;;;17.92;78.00;91810.81;2041751;70;20685;-83
2023/07/25 05:58:15;;;;;;;5.55;1.95;;;;;;;18.15;77.71;91800.56;2044927;70;20187;-83
2023/07/25 06:00:41;;;;;;;6.03;1.90;;;;;;;18.31;76.92;91806.53;2044990;70;20131;-83
2023/07/25 06:03:10;;;;;;;5.70;2.10;;;;;;;18.46;76.49;91807.50;2044923;70;20147;-83
2023/07/25 06:05:35;;;;;;;3.75;2.00;;;;;;;18.44;75.30;91807.47;2045001;70;20162;-82
2023/07/25 06:08:01;;;;;;;3.70;2.30;;;;;;;18.08;76.03;91816.78;2045002;70;20147;-83
2023/07/25 06:10:29;;;;;;;3.58;2.20;;;;;;;18.20;76.28;91816.31;2044964;70;20529;-81
2023/07/25 06:12:54;;;;;;;4.00;2.22;;;;;;;18.29;76.52;91815.78;2044946;70;20609;-82
2023/07/25 06:15:20;;;;;;;5.05;2.47;;;;;;;18.25;76.61;91810.00;2045158;70;20151;-83
2023/07/25 06:17:46;;;;;;;4.53;2.50;;;;;;;18.18;77.22;91808.44;2044785;70;20231;-82
2023/07/25 06:20:14;;;;;;;5.43;2.85;;;;;;;18.18;76.42;91807.72;2045117;70;20150;-84
2023/07/25 06:22:39;;;;;;;5.05;2.78;;;;;;;18.13;76.50;91812.63;2045087;70;20143;-84
2023/07/25 06:25:08;;;;;;;6.70;2.70;;;;;;;18.22;76.99;91811.34;2044951;70;20140;-83
2023/07/25 06:27:34;;;;;;;7.68;2.83;;;;;;;18.13;76.35;91812.63;2045151;70;20150;-83
2023/07/25 06:30:01;;;;;;;6.32;3.03;;;;;;;18.03;77.15;91812.44;2043495;70;20182;-83
2023/07/25 06:32:27;;;;;;;4.88;2.78;;;;;;;17.98;77.44;91820.16;2043035;70;20147;-84
2023/07/25 06:34:53;;;;;;;4.68;2.30;;;;;;;18.15;76.66;91821.22;2038365;70;20138;-83
2023/07/25 06:37:18;;;;;;;3.08;2.30;;;;;;;18.12;78.34;91824.69;2040319;70;20135;-85
2023/07/25 06:39:44;;;;;;;5.03;2.88;;;;;;;18.28;77.15;91822.16;2044903;70;20150;-83
2023/07/25 06:42:09;;;;;;;3.85;2.40;;;;;;;18.27;77.54;91829.97;2045020;70;20168;-83
2023/07/25 06:44:36;;;;;;;6.00;2.20;;;;;;;18.32;78.45;91832.88;2044745;70;20158;-83
2023/07/25 06:47:02;;;;;;;6.47;2.75;;;;;;;18.40;78.33;91827.34;2041556;70;20154;-83
2023/07/25 06:49:28;;;;;;;5.25;2.25;;;;;;;18.49;78.51;91828.94;2044904;70;20142;-84
2023/07/25 06:51:55;;;;;;;7.72;2.67;;;;;;;18.27;77.25;91820.69;2044909;70;20218;-83
2023/07/25 06:54:22;;;;;;;5.68;2.72;;;;;;;18.06;77.79;91830.28;2044890;70;20620;-84
2023/07/25 06:56:48;;;;;;;4.10;2.70;;;;;;;18.28;77.16;91825.72;2044888;70;20185;-83
2023/07/25 06:59:13;;;;;;;11.07;4.53;;;;;;;18.33;76.26;91823.69;2044699;70;20162;-84
2023/07/25 07:01:39;;;;;;;8.50;3.90;;;;;;;18.62;75.51;91815.63;2041541;70;20153;-84
2023/07/25 07:04:04;;;;;;;9.70;4.47;;;;;;;18.43;76.53;91826.72;2041819;70;20206;-83
2023/07/25 07:06:30;;;;;;;8.10;4.00;;;;;;;18.45;76.74;91826.72;2041682;70;20146;-85
2023/07/25 07:08:56;;;;;;;7.63;3.38;;;;;;;18.67;75.56;91828.53;2041632;70;20258;-84
2023/07/25 07:11:24;;;;;;;7.32;3.30;;;;;;;18.51;75.68;91831.84;2045082;70;20165;-84
2023/07/25 07:13:49;;;;;;;5.05;2.80;;;;;;;18.56;76.17;91830.50;2047321;70;20142;-83
2023/07/25 07:16:15;;;;;;;4.80;2.67;;;;;;;18.60;74.94;91819.16;2048183;70;20181;-82
2023/07/25 07:18:41;;;;;;;6.03;2.70;;;;;;;18.56;75.49;91799.16;2047998;70;20524;-88
2023/07/25 07:21:07;;;;;;;6.18;2.67;;;;;;;18.76;74.16;91796.66;2049939;70;20528;-90
2023/07/25 07:23:33;;;;;;;5.50;3.45;;;;;;;18.85;73.38;91797.50;2046123;70;20600;-89
2023/07/25 07:25:59;;;;;;;4.43;2.80;;;;;;;18.46;76.95;91798.94;2046329;70;20134;-89
2023/07/25 07:28:24;;;;;;;4.93;3.33;;;;;;;18.27;78.46;91797.91;2049685;70;20146;-88
2023/07/25 07:30:51;;;;;;;9.90;3.33;;;;;;;18.55;77.40;91806.22;2049382;70;20142;-88
2023/07/25 07:33:17;;;;;;;8.73;3.50;;;;;;;18.19;77.61;91803.44;2050229;70;20161;-89
2023/07/25 07:35:43;;;;;;;6.00;3.42;;;;;;;18.42;77.63;91810.31;2050581;70;20597;-87
2023/07/25 07:38:09;;;;;;;6.65;3.30;;;;;;;18.46;76.46;91822.50;2049401;70;20160;-87
2023/07/25 07:40:37;;;;;;;8.65;3.53;;;;;;;18.46;74.72;91810.34;2048462;70;20649;-84
2023/07/25 07:43:03;;;;;;;6.65;3.28;;;;;;;18.60;75.24;91824.13;2048584;70;20218;-88
2023/07/25 07:45:30;;;;;;;5.53;3.30;;;;;;;18.61;74.93;91825.59;2048506;70;20142;-88
2023/07/25 07:47:56;;;;;;;5.68;3.20;;;;;;;18.52;75.72;91833.28;2048119;70;20163;-89
2023/07/25 07:50:21;;;;;;;4.15;2.80;;;;;;;18.46;75.54;91833.88;2048982;70;20165;-88
2023/07/25 07:52:48;;;;;;;4.78;2.50;;;;;;;18.52;76.81;91839.69;2045519;70;20186;-89
2023/07/25 07:55:15;;;;;;;7.25;3.58;;;;;;;18.32;76.42;91830.03;2049262;70;20261;-89
2023/07/25 07:57:42;;;;;;;5.97;3.35;;;;;;;18.35;78.25;91840.06;2050137;70;20142;-87
2023/07/25 08:00:09;;;;;;;5.47;3.67;;;;;;;18.68;77.33;91867.75;2049856;70;20147;-84
2023/07/25 08:02:37;;;;;;;4.55;3.28;;;;;;;18.55;76.40;91868.94;2048421;70;20165;-86
2023/07/25 08:05:05;;;;;;;4.13;2.63;;;;;;;18.57;77.51;91874.69;2048917;70;20593;-87
2023/07/25 08:07:30;;;;;;;5.00;2.70;;;;;;;18.16;77.66;91876.75;2049415;70;20249;-86
2023/07/25 08:09:56;;;;;;;4.03;2.55;;;;;;;18.18;77.40;91884.63;2052094;70;20678;-87
2023/07/25 08:12:23;;;;;;;5.20;2.50;;;;;;;18.20;77.53;91890.38;2051516;70;20541;-87
2023/07/25 08:14:50;;;;;;;4.68;2.63;;;;;;;18.46;77.26;91887.28;2049008;70;20210;-85
2023/07/25 08:17:15;;;;;;;5.25;2.88;;;;;;;18.57;77.18;91902.47;2048793;70;20206;-86
2023/07/25 08:19:41;;;;;;;4.40;2.90;;;;;;;18.61;77.15;91899.69;2049869;70;20150;-83
2023/07/25 08:22:08;;;;;;;5.82;2.90;;;;;;;18.52;77.13;91887.41;2043335;70;20170;-86
2023/07/25 08:24:33;;;;;;;9.77;3.20;;;;;;;18.73;77.20;91917.75;2048174;70;20158;-85
2023/07/25 08:26:59;;;;;;;4.70;2.60;;;;;;;18.54;76.84;91918.78;2048526;70;20512;-87
2023/07/25 08:29:25;;;;;;;8.30;2.92;;;;;;;18.60;75.94;91926.72;2048817;70;20215;-88
2023/07/25 08:31:51;;;;;;;5.03;2.67;;;;;;;18.40;75.52;91922.09;2049801;70;20149;-90
2023/07/25 08:34:16;;;;;;;7.07;2.58;;;;;;;18.37;75.84;91929.19;2048705;70;20150;-87
2023/07/25 08:36:42;;;;;;;3.85;2.70;;;;;;;18.28;75.59;91931.13;2048380;70;20142;-88
2023/07/25 08:39:07;;;;;;;4.18;2.67;;;;;;;18.37;76.50;91934.13;2048517;70;20557;-89
2023/07/25 08:41:39;;;;;;;4.90;2.60;;;;;;;18.29;76.40;91941.13;2048988;70;20572;-88
2023/07/25 08:44:08;;;;;;;4.53;2.53;;;;;;;18.67;75.33;91934.72;2049091;70;20222;-89
2023/07/25 08:46:35;;;;;;;5.15;2.40;;;;;;;18.61;75.61;91943.16;2046396;70;20142;-90
2023/07/25 08:49:03;;;;;;;5.47;2.20;;;;;;;18.76;75.70;91938.47;2049622;70;20174;-89
2023/07/25 08:51:34;;;;;;;4.20;2.60;;;;;;;18.98;73.57;91936.03;2052233;70;20155;-88
2023/07/25 08:54:30;;;;;;;4.25;2.40;;;;;;;18.94;74.48;91929.53;2048674;70;20208;-88
2023/07/25 08:56:56;;;;;;;3.35;2.35;;;;;;;19.30;75.02;91918.00;2048462;70;20161;-88
2023/07/25 08:59:23;;;;;;;3.33;2.00;;;;;;;19.67;73.91;91918.59;2047876;70;20178;-88
2023/07/25 09:01:49;;;;;;;5.03;2.30;;;;;;;19.85;72.58;91918.88;2047953;70;20143;-89
2023/07/25 09:04:16;;;;;;;5.00;2.35;;;;;;;20.29;69.71;91912.28;2048457;70;20198;-90
2023/07/25 09:06:41;;;;;;;3.28;2.28;;;;;;;20.23;70.10;91909.34;2048507;70;20230;-88
2023/07/25 09:09:07;;;;;;;3.80;2.67;;;;;;;20.18;68.89;91911.44;2045768;70;20228;-89
2023/07/25 09:11:33;;;;;;;4.03;2.50;;;;;;;20.31;70.52;91913.03;2050207;70;20162;-89
2023/07/25 09:14:00;;;;;;;3.50;1.98;;;;;;;20.21;69.32;91917.91;2049082;70;20142;-89
2023/07/25 09:16:26;;;;;;;13.35;4.28;;;;;;;19.64;71.50;91908.56;2050884;70;20176;-88
2023/07/25 09:18:53;;;;;;;9.43;4.10;;;;;;;20.23;70.58;91910.06;2046944;70;20138;-89
2023/07/25 09:21:19;;;;;;;7.10;2.67;;;;;;;19.44;70.86;91894.69;2049522;70;20143;-87
2023/07/25 09:23:52;;;;;;;7.45;3.05;;;;;;;19.32;71.81;91889.50;2049006;70;20146;-87
2023/07/25 09:26:21;;;;;;;4.65;2.38;;;;;;;20.09;69.01;91906.31;2048372;70;20213;-86
2023/07/25 09:28:49;;;;;;;2.90;1.88;;;;;;;20.08;68.37;91902.75;2048928;70;20261;-88
2023/07/25 09:31:14;;;;;;;6.00;2.22;;;;;;;20.17;69.59;91906.44;2048869;70;20226;-85
2023/07/25 09:33:40;;;;;;;5.10;2.45;;;;;;;20.02;69.08;91923.41;2048741;70;20720;-84
2023/07/25 09:36:07;;;;;;;2.97;2.10;;;;;;;19.52;70.02;91906.94;2048577;70;20162;-86
2023/07/25 09:38:36;;;;;;;3.40;2.00;;;;;;;20.05;68.30;91918.41;2049816;70;20149;-89
2023/07/25 09:41:02;;;;;;;2.83;2.15;;;;;;;20.19;67.82;91910.03;2049132;70;20142;-85
2023/07/25 09:43:28;;;;;;;3.03;2.00;;;;;;;20.06;67.04;91909.13;2044026;70;20533;-87
2023/07/25 09:45:55;;;;;;;2.92;1.70;;;;;;;20.27;67.35;91915.13;2043950;70;20194;-86
2023/07/25 09:48:21;;;;;;;2.35;1.88;;;;;;;20.24;66.70;91916.50;2043083;70;20174;-86
2023/07/25 09:50:48;;;;;;;3.17;1.80;;;;;;;20.47;65.68;91908.94;2039959;70;20211;-86
2023/07/25 09:53:17;;;;;;;2.60;1.83;;;;;;;21.32;64.88;91897.66;2039182;70;20215;-87
2023/07/25 09:55:44;;;;;;;3.33;1.90;;;;;;;22.32;63.05;91893.31;2042883;70;20143;-86
2023/07/25 09:58:11;;;;;;;3.15;1.88;;;;;;;22.19;62.30;91903.28;2042654;70;20549;-87
2023/07/25 10:00:37;;;;;;;2.50;1.73;;;;;;;22.05;59.66;91894.59;2042984;70;20207;-86
2023/07/25 10:03:03;;;;;;;2.92;1.95;;;;;;;22.50;57.75;91903.44;2039248;70;20155;-86
2023/07/25 10:05:29;;;;;;;1.98;1.65;;;;;;;22.79;57.75;91896.34;2042191;70;20140;-86
2023/07/25 10:07:59;;;;;;;3.75;1.80;;;;;;;22.55;57.83;91905.59;2042203;70;20144;-86
2023/07/25 10:10:26;;;;;;;2.95;1.90;;;;;;;22.63;57.50;91896.28;2035913;70;20159;-86
2023/07/25 10:12:53;;;;;;;3.53;1.73;;;;;;;22.84;58.10;91906.41;2042069;70;20143;-88
2023/07/25 10:15:19;;;;;;;3.60;1.70;;;;;;;22.99;57.83;91901.44;2039183;70;20139;-87
2023/07/25 10:17:46;;;;;;;5.55;1.63;;;;;;;22.94;58.56;91905.00;2041450;70;20242;-87
2023/07/25 10:20:20;;;;;;;3.25;1.70;;;;;;;23.04;59.47;91905.75;2037830;70;20253;-88
2023/07/25 10:22:46;;;;;;;1.73;1.60;;;;;;;23.13;56.60;91897.16;2042476;70;20155;-86
2023/07/25 10:25:20;;;;;;;2.88;1.73;;;;;;;22.68;56.97;91900.63;2042522;70;20155;-88
2023/07/25 10:27:47;;;;;;;2.47;1.80;;;;;;;22.80;55.61;91892.03;2042499;70;20171;-88
2023/07/25 10:30:28;;;;;;;2.38;1.58;;;;;;;23.31;55.69;91902.91;2041913;70;20159;-86
2023/07/25 10:33:06;;;;;;;1.95;1.50;;;;;;;23.37;54.95;91905.06;2042390;70;20143;-84
2023/07/25 10:35:58;;;;;;;1.50;1.40;;;;;;;21.37;57.38;91893.41;2041805;70;20147;-88
2023/07/25 10:38:32;;;;;;;2.58;1.80;;;;;;;21.90;58.51;91910.97;2041134;70;20202;-87
2023/07/25 10:40:59;;;;;;;4.30;1.70;;;;;;;21.39;60.78;91907.72;2041972;70;20146;-86
2023/07/25 10:43:29;;;;;;;5.97;1.90;;;;;;;21.20;60.50;91911.84;2042623;70;20151;-86
2023/07/25 10:46:00;;;;;;;2.10;1.35;;;;;;;20.70;61.93;91915.63;2041812;70;20151;-86
2023/07/25 10:48:30;;;;;;;2.10;1.60;;;;;;;20.18;62.24;91905.00;2041893;70;20139;-86
2023/07/25 10:50:57;;;;;;;2.08;1.50;;;;;;;20.49;62.59;91911.84;2042050;70;20178;-85
2023/07/25 10:53:24;;;;;;;2.53;1.50;;;;;;;20.10;61.52;91913.47;2042130;70;20147;-86
2023/07/25 10:56:05;;;;;;;2.50;1.60;;;;;;;19.92;65.25;91914.66;2042641;70;20152;-86
2023/07/25 10:58:52;;;;;;;3.75;1.77;;;;;;;20.02;64.45;91908.38;2042307;70;20239;-86
2023/07/25 11:01:32;;;;;;;2.33;1.60;;;;;;;20.56;64.03;91908.34;2040047;70;20171;-85
2023/07/25 11:04:31;;;;;;;2.13;1.30;;;;;;;20.79;66.53;91900.00;2039279;70;20159;-86
2023/07/25 11:07:07;;;;;;;2.10;1.60;;;;;;;20.76;67.88;91910.00;2042572;70;20153;-86
2023/07/25 11:09:39;;;;;;;3.28;1.50;;;;;;;20.76;67.88;91916.44;2042273;70;20147;-87
2023/07/25 11:12:05;;;;;;;2.53;1.30;;;;;;;20.83;67.54;91920.06;2042928;70;20140;-86
2023/07/25 11:14:31;;;;;;;1.63;1.40;;;;;;;20.74;67.82;91921.41;2043338;70;20199;-87
2023/07/25 11:16:57;;;;;;;2.72;1.50;;;;;;;20.63;67.18;91922.72;2042320;70;20602;-86
2023/07/25 11:19:26;;;;;;;3.40;1.50;;;;;;;20.69;67.53;91914.94;2042760;70;20150;-85
2023/07/25 11:21:52;;;;;;;2.38;1.90;;;;;;;20.49;68.03;91920.44;2039916;70;20605;-85
2023/07/25 11:24:20;;;;;;;3.28;1.77;;;;;;;20.34;68.65;91908.06;2043738;70;20170;-87
2023/07/25 11:26:46;;;;;;;2.33;1.60;;;;;;;20.59;67.50;91911.97;2043275;70;20210;-87
2023/07/25 11:29:13;;;;;;;4.03;1.90;;;;;;;20.78;67.29;91918.59;2043015;70;20143;-84
2023/07/25 11:31:45;;;;;;;5.70;1.65;;;;;;;20.76;66.60;91907.16;2043345;70;20147;-88
2023/07/25 11:34:16;;;;;;;2.60;1.70;;;;;;;21.20;64.81;91891.81;2039356;70;20143;-88
2023/07/25 11:36:42;;;;;;;2.63;1.70;;;;;;;21.48;64.82;91894.91;2042565;70;20658;-89
2023/07/25 11:39:09;;;;;;;3.13;1.80;;;;;;;20.64;65.21;91887.00;2042007;70;20143;-89
2023/07/25 11:41:37;;;;;;;2.65;1.88;;;;;;;20.20;67.59;91885.03;2042524;70;20194;-87
2023/07/25 11:44:11;;;;;;;3.60;1.77;;;;;;;19.77;71.73;91887.34;2042979;70;20171;-88
2023/07/25 11:46:42;;;;;;;2.78;2.00;;;;;;;20.83;67.95;91885.03;2042006;70;20166;-89